Time;durP1;ratioP1;P1;durP2;ratioP2;P2;SDS_P1;SDS_P2;PMS_P1;PMS_P2;Temp;Humidity;BMP_temperature;BMP_pressure;BME280_temperature;BME280_humidity;BME280_pressure;Samples;Min_cycle;Max_cycle;Signal;HPM_P1;HPM_P2
2021/06/15 00:01:29;;;;;;;13.68;6.78;;;19.40;77.20;;;;;;5052228;28;20389;-81
2021/06/15 00:03:55;;;;;;;14.10;6.65;;;19.40;77.50;;;;;;5035901;28;20021;-81
2021/06/15 00:06:20;;;;;;;14.88;6.75;;;19.40;77.30;;;;;;5035745;28;20029;-80
2021/06/15 00:08:46;;;;;;;11.73;7.00;;;19.40;77.30;;;;;;5053128;28;20504;-81
2021/06/15 00:11:12;;;;;;;11.00;6.60;;;19.30;77.50;;;;;;5052316;28;20043;-81
2021/06/15 00:13:37;;;;;;;9.45;5.90;;;19.30;77.30;;;;;;5035354;28;20061;-81
2021/06/15 00:16:03;;;;;;;10.15;6.45;;;19.30;77.70;;;;;;5051943;28;20029;-81
2021/06/15 00:18:29;;;;;;;9.95;6.28;;;19.30;77.60;;;;;;5048039;28;20061;-81
2021/06/15 00:20:54;;;;;;;11.88;6.22;;;19.20;77.80;;;;;;5020052;28;20056;-81
2021/06/15 00:23:21;;;;;;;10.20;6.28;;;19.20;78.00;;;;;;5017319;28;20022;-82
2021/06/15 00:25:47;;;;;;;11.55;5.75;;;19.10;77.70;;;;;;5035864;28;20021;-80
2021/06/15 00:28:13;;;;;;;12.02;6.28;;;19.10;77.90;;;;;;5036874;28;20052;-80
2021/06/15 00:30:39;;;;;;;11.80;5.57;;;19.10;78.10;;;;;;5056001;28;20029;-80
2021/06/15 00:33:04;;;;;;;10.82;5.50;;;19.00;77.90;;;;;;5055981;28;20041;-80
2021/06/15 00:35:30;;;;;;;9.98;5.30;;;19.00;78.30;;;;;;5038874;28;20032;-80
2021/06/15 00:37:56;;;;;;;8.68;5.50;;;19.00;78.30;;;;;;5055497;28;20393;-79
2021/06/15 00:40:22;;;;;;;10.02;5.78;;;18.90;78.50;;;;;;5035277;28;20511;-80
2021/06/15 00:42:48;;;;;;;10.93;5.72;;;18.90;78.60;;;;;;5035593;28;20064;-81
2021/06/15 00:45:17;;;;;;;10.93;6.03;;;18.90;78.40;;;;;;5035584;28;20029;-81
2021/06/15 00:47:46;;;;;;;8.10;5.47;;;18.90;78.90;;;;;;5051625;28;20462;-81
2021/06/15 00:50:13;;;;;;;10.85;5.68;;;18.80;78.70;;;;;;5037050;28;20046;-81
2021/06/15 00:52:38;;;;;;;12.15;5.80;;;18.80;78.90;;;;;;5035429;28;20033;-81
2021/06/15 00:55:05;;;;;;;10.23;5.18;;;18.80;79.00;;;;;;5040021;28;20427;-81
2021/06/15 00:57:31;;;;;;;10.23;6.03;;;18.80;79.20;;;;;;5055701;28;20029;-80
2021/06/15 00:59:57;;;;;;;10.95;5.93;;;18.70;79.50;;;;;;5055248;28;20079;-81
2021/06/15 01:02:25;;;;;;;12.25;6.40;;;18.70;79.40;;;;;;5055770;28;20032;-80
2021/06/15 01:04:51;;;;;;;11.75;5.40;;;18.70;79.40;;;;;;5053624;28;20021;-80
2021/06/15 01:07:24;;;;;;;13.02;6.30;;;18.60;79.30;;;;;;5035222;28;20022;-80
2021/06/15 01:10:14;;;;;;;10.93;4.93;;;18.60;79.50;;;;;;5034947;28;20405;-79
2021/06/15 01:12:54;;;;;;;9.30;5.68;;;18.60;79.50;;;;;;5034753;28;20041;-79
2021/06/15 01:15:29;;;;;;;9.75;4.60;;;18.50;79.30;;;;;;5039371;28;20053;-79
2021/06/15 01:18:00;;;;;;;11.30;5.10;;;18.40;79.20;;;;;;5036272;28;20033;-79
2021/06/15 01:20:29;;;;;;;9.45;4.75;;;18.40;79.30;;;;;;5035079;28;20037;-79
2021/06/15 01:23:32;;;;;;;11.05;5.35;;;18.40;79.40;;;;;;5035940;28;20029;-79
2021/06/15 01:26:29;;;;;;;9.52;4.63;;;18.30;79.40;;;;;;5043508;28;20529;-79
2021/06/15 01:28:57;;;;;;;7.75;4.90;;;18.30;79.50;;;;;;5055972;28;20032;-79
2021/06/15 01:31:38;;;;;;;10.25;4.72;;;18.30;79.70;;;;;;5055876;28;20049;-79
2021/06/15 01:34:09;;;;;;;9.73;5.13;;;18.30;79.80;;;;;;5045700;28;20030;-79
2021/06/15 01:36:40;;;;;;;10.82;5.43;;;18.30;79.70;;;;;;5035614;28;20037;-79
2021/06/15 01:39:20;;;;;;;10.63;4.70;;;18.20;79.70;;;;;;5035555;28;20022;-79
2021/06/15 01:42:07;;;;;;;8.80;4.15;;;18.20;79.70;;;;;;5035578;28;20473;-79
2021/06/15 01:44:35;;;;;;;9.15;5.03;;;18.20;79.90;;;;;;5044921;28;20453;-79
2021/06/15 01:47:07;;;;;;;8.35;4.47;;;18.20;79.80;;;;;;5055402;28;20110;-80
2021/06/15 01:49:42;;;;;;;6.55;4.63;;;18.20;79.80;;;;;;5054225;28;20047;-80
2021/06/15 01:52:10;;;;;;;9.75;4.63;;;18.10;79.90;;;;;;5053703;28;20381;-79
2021/06/15 01:54:37;;;;;;;9.93;4.47;;;18.10;79.80;;;;;;5054349;28;20033;-80
2021/06/15 01:57:04;;;;;;;8.45;4.28;;;18.10;80.00;;;;;;5054290;28;20025;-81
2021/06/15 01:59:30;;;;;;;10.43;4.47;;;18.10;79.80;;;;;;5054187;28;20033;-80
2021/06/15 02:01:59;;;;;;;10.40;5.43;;;18.10;79.80;;;;;;5033837;28;20033;-80
2021/06/15 02:04:28;;;;;;;8.85;4.88;;;18.00;79.80;;;;;;5018148;28;20390;-80
2021/06/15 02:06:55;;;;;;;9.95;5.25;;;18.00;79.80;;;;;;5034975;28;20032;-80
2021/06/15 02:09:23;;;;;;;12.30;5.13;;;18.00;79.90;;;;;;5017447;28;20044;-80
2021/06/15 02:11:49;;;;;;;8.73;4.78;;;18.00;79.80;;;;;;5043706;28;20028;-81
2021/06/15 02:14:18;;;;;;;9.55;5.38;;;18.00;79.90;;;;;;5037576;28;20033;-80
2021/06/15 02:16:53;;;;;;;9.02;4.45;;;18.00;79.90;;;;;;5054972;28;20025;-80
2021/06/15 02:19:22;;;;;;;12.57;4.65;;;18.00;80.10;;;;;;5037594;28;20026;-80
2021/06/15 02:21:53;;;;;;;10.70;4.90;;;17.90;80.00;;;;;;5033430;28;20167;-80
2021/06/15 02:24:22;;;;;;;9.43;4.18;;;17.90;79.90;;;;;;5033416;28;20479;-80
2021/06/15 02:26:50;;;;;;;8.18;4.53;;;17.90;80.00;;;;;;5034722;28;20021;-79
2021/06/15 02:29:16;;;;;;;8.93;4.65;;;17.90;79.90;;;;;;5050293;28;20037;-79
2021/06/15 02:31:48;;;;;;;8.60;4.20;;;17.90;79.80;;;;;;5033415;28;20034;-80
2021/06/15 02:34:17;;;;;;;6.57;3.70;;;17.90;79.80;;;;;;5035288;28;20029;-80
2021/06/15 02:36:44;;;;;;;10.02;3.95;;;17.90;79.90;;;;;;5033046;28;20120;-79
2021/06/15 02:39:16;;;;;;;8.60;3.88;;;17.90;79.80;;;;;;5049364;28;20033;-79
2021/06/15 02:41:43;;;;;;;7.03;3.88;;;17.90;79.80;;;;;;5053279;28;20388;-80
2021/06/15 02:44:15;;;;;;;7.13;3.40;;;17.90;79.80;;;;;;5054476;28;20040;-81
2021/06/15 02:46:43;;;;;;;6.57;3.63;;;17.90;79.80;;;;;;5045342;28;20115;-80
2021/06/15 02:49:15;;;;;;;8.63;3.97;;;17.90;79.70;;;;;;5033339;28;20393;-80
2021/06/15 02:52:58;;;;;;;8.05;3.83;;;17.90;79.60;;;;;;5016842;28;20057;-80
2021/06/15 02:55:29;;;;;;;9.00;4.18;;;17.90;79.80;;;;;;4938085;29;20464;-80
2021/06/15 02:57:55;;;;;;;8.10;3.55;;;17.90;79.50;;;;;;4970517;28;20038;-79
2021/06/15 03:00:21;;;;;;;6.82;3.63;;;17.90;79.30;;;;;;5003833;28;20507;-79
2021/06/15 03:02:46;;;;;;;8.18;3.00;;;17.90;79.20;;;;;;5052742;28;20499;-80
2021/06/15 03:05:17;;;;;;;5.90;2.85;;;17.80;79.10;;;;;;5045326;28;20580;-80
2021/06/15 03:07:47;;;;;;;8.25;3.22;;;17.90;79.10;;;;;;5032147;28;20517;-80
2021/06/15 03:10:15;;;;;;;6.38;2.78;;;17.90;79.00;;;;;;5016554;28;20489;-80
2021/06/15 03:13:19;;;;;;;7.53;3.17;;;17.90;78.90;;;;;;5034018;28;20026;-80
2021/06/15 03:15:53;;;;;;;5.25;3.10;;;17.90;78.80;;;;;;5007402;28;20046;-79
2021/06/15 03:18:26;;;;;;;6.80;2.53;;;17.80;78.70;;;;;;5032728;28;20409;-80
2021/06/15 03:20:55;;;;;;;5.05;2.47;;;17.80;78.80;;;;;;5032763;28;20362;-79
2021/06/15 03:23:39;;;;;;;5.50;3.17;;;17.90;78.80;;;;;;5049349;28;20428;-80
2021/06/15 03:26:10;;;;;;;5.90;2.67;;;17.80;78.90;;;;;;5046601;28;20115;-79
2021/06/15 03:28:37;;;;;;;10.23;3.55;;;17.80;79.00;;;;;;5052478;28;20370;-79
2021/06/15 03:31:04;;;;;;;7.05;3.60;;;17.80;79.10;;;;;;5052297;28;20032;-80
2021/06/15 03:33:33;;;;;;;6.57;3.15;;;17.80;79.30;;;;;;5053717;28;20040;-80
2021/06/15 03:36:01;;;;;;;6.40;3.55;;;17.80;80.20;;;;;;5038795;28;20156;-79
2021/06/15 03:38:32;;;;;;;6.93;3.40;;;17.80;79.70;;;;;;5032025;28;20025;-79
2021/06/15 03:40:59;;;;;;;9.60;4.03;;;17.80;79.80;;;;;;5032445;28;20057;-80
2021/06/15 03:43:28;;;;;;;9.77;3.80;;;17.80;80.10;;;;;;5033505;28;20092;-80
2021/06/15 03:46:11;;;;;;;10.35;4.07;;;17.80;80.10;;;;;;5032835;28;20052;-80
2021/06/15 03:48:45;;;;;;;8.43;3.70;;;17.80;80.00;;;;;;5032034;28;20069;-80
2021/06/15 03:51:12;;;;;;;;;;;17.80;80.00;;;;;;5032208;28;20388;-80
2021/06/15 03:53:39;;;;;;;6.68;2.92;;;17.90;79.90;;;;;;5033341;28;19904;-80
2021/06/15 03:56:08;;;;;;;6.10;2.80;;;17.90;79.60;;;;;;5031766;28;20084;-80
2021/06/15 03:58:35;;;;;;;7.50;3.45;;;17.90;79.40;;;;;;5032801;28;20531;-80
2021/06/15 04:01:03;;;;;;;6.95;3.03;;;17.90;79.40;;;;;;5035802;28;20092;-79
2021/06/15 04:03:32;;;;;;;9.65;3.45;;;17.90;79.20;;;;;;5034661;28;20127;-79
2021/06/15 04:06:00;;;;;;;6.07;2.58;;;17.90;79.00;;;;;;5038671;28;20056;-79
2021/06/15 04:08:26;;;;;;;6.47;2.97;;;17.80;79.00;;;;;;5030228;28;20073;-78
2021/06/15 04:10:54;;;;;;;5.63;3.22;;;17.80;79.10;;;;;;5015100;28;20060;-78
2021/06/15 04:13:21;;;;;;;5.68;2.63;;;17.80;79.30;;;;;;5032746;28;20068;-78
2021/06/15 04:15:48;;;;;;;10.35;3.45;;;17.80;79.50;;;;;;5040193;28;20464;-79
2021/06/15 04:18:16;;;;;;;7.05;2.47;;;17.80;79.30;;;;;;5051707;28;20040;-79
2021/06/15 04:20:45;;;;;;;9.48;2.40;;;17.80;79.20;;;;;;5053090;28;20025;-79
2021/06/15 04:23:18;;;;;;;7.65;2.17;;;17.80;78.90;;;;;;5051745;28;20029;-79
2021/06/15 04:25:46;;;;;;;4.18;1.75;;;17.90;78.40;;;;;;5031342;28;20041;-79
2021/06/15 04:28:12;;;;;;;4.68;1.30;;;17.90;77.80;;;;;;5032879;28;20082;-79
2021/06/15 04:30:39;;;;;;;7.07;1.10;;;18.00;76.80;;;;;;5032928;28;20076;-80
2021/06/15 04:33:09;;;;;;;5.53;1.27;;;17.90;76.50;;;;;;5031977;28;20030;-80
2021/06/15 04:35:40;;;;;;;3.28;0.98;;;18.00;76.20;;;;;;5031152;28;20029;-80
2021/06/15 04:38:22;;;;;;;3.67;1.08;;;18.00;75.40;;;;;;5031720;28;20018;-79
2021/06/15 04:40:49;;;;;;;4.05;1.02;;;18.00;75.00;;;;;;5031946;28;20026;-79
2021/06/15 04:43:43;;;;;;;4.80;0.85;;;18.00;74.70;;;;;;5016283;28;20377;-80
2021/06/15 04:46:18;;;;;;;4.75;0.75;;;18.00;74.50;;;;;;5051609;28;20045;-80
2021/06/15 04:48:48;;;;;;;5.13;0.88;;;18.00;74.50;;;;;;5052436;28;20473;-80
2021/06/15 04:51:19;;;;;;;10.77;1.10;;;18.00;74.20;;;;;;5050716;28;20105;-80
2021/06/15 04:53:46;;;;;;;2.75;0.65;;;18.00;73.80;;;;;;5046212;28;20028;-80
2021/06/15 04:56:15;;;;;;;6.20;0.90;;;18.00;73.40;;;;;;5031308;28;20029;-79
2021/06/15 04:58:42;;;;;;;8.40;1.08;;;18.00;72.80;;;;;;5031387;28;20393;-79
2021/06/15 05:01:09;;;;;;;6.13;0.70;;;18.00;72.80;;;;;;5031019;28;20022;-79
2021/06/15 05:03:36;;;;;;;3.22;0.73;;;18.00;72.70;;;;;;5047412;28;20033;-79
2021/06/15 05:06:05;;;;;;;2.95;0.52;;;18.00;72.60;;;;;;5051724;28;20571;-79
2021/06/15 05:08:46;;;;;;;4.38;0.70;;;18.00;72.40;;;;;;5051591;28;20094;-79
2021/06/15 05:11:12;;;;;;;5.32;0.68;;;18.00;72.20;;;;;;5055965;28;20472;-80
2021/06/15 05:13:40;;;;;;;7.20;1.20;;;18.00;71.80;;;;;;5034619;28;20503;-80
2021/06/15 05:16:08;;;;;;;3.22;0.60;;;18.00;71.60;;;;;;5035206;28;20104;-80
2021/06/15 05:18:37;;;;;;;6.20;0.90;;;18.00;71.40;;;;;;5018129;28;20535;-80
2021/06/15 05:21:46;;;;;;;4.90;0.50;;;18.00;71.10;;;;;;5031530;28;20453;-80
2021/06/15 05:24:48;;;;;;;3.85;0.88;;;18.00;70.90;;;;;;5026756;28;20110;-81
2021/06/15 05:27:15;;;;;;;9.40;1.02;;;18.00;70.90;;;;;;5034801;28;20071;-81
2021/06/15 05:29:41;;;;;;;5.03;0.80;;;18.00;70.70;;;;;;5034719;28;20045;-81
2021/06/15 05:32:08;;;;;;;3.92;0.65;;;18.00;70.60;;;;;;5034487;28;20492;-81
2021/06/15 05:34:37;;;;;;;4.13;0.65;;;18.00;70.30;;;;;;5034156;28;20026;-85
2021/06/15 05:37:05;;;;;;;4.38;0.60;;;18.00;69.80;;;;;;5018426;28;20026;-83
2021/06/15 05:39:32;;;;;;;6.32;0.95;;;18.00;69.70;;;;;;5017760;28;20099;-84
2021/06/15 05:42:00;;;;;;;6.43;0.50;;;18.10;69.70;;;;;;5040833;28;20377;-84
2021/06/15 05:44:27;;;;;;;4.55;0.60;;;18.20;69.80;;;;;;5043369;28;20114;-84
2021/06/15 05:46:52;;;;;;;4.75;0.70;;;18.20;69.60;;;;;;5030908;28;20127;-83
2021/06/15 05:49:18;;;;;;;8.48;0.50;;;18.20;69.40;;;;;;5034995;28;20132;-83
2021/06/15 05:51:44;;;;;;;5.57;0.57;;;18.30;69.30;;;;;;5046640;28;20052;-83
2021/06/15 05:54:10;;;;;;;5.10;0.60;;;18.30;69.00;;;;;;5031510;28;20029;-83
2021/06/15 05:56:38;;;;;;;2.92;0.50;;;18.30;69.10;;;;;;5034207;28;20545;-85
2021/06/15 05:59:06;;;;;;;5.90;0.60;;;18.40;69.30;;;;;;5018886;28;20404;-84
2021/06/15 06:01:34;;;;;;;7.38;0.60;;;18.40;69.30;;;;;;5061348;28;20029;-83
2021/06/15 06:04:05;;;;;;;4.75;0.75;;;18.40;69.40;;;;;;5032973;28;20041;-84
2021/06/15 06:09:15;;;;;;;4.22;0.70;;;18.50;69.50;;;;;;5045066;28;20419;-81
2021/06/15 06:11:42;;;;;;;4.70;0.60;;;18.50;69.30;;;;;;5041002;28;20108;-81
2021/06/15 06:14:08;;;;;;;5.97;0.93;;;18.60;69.20;;;;;;5041789;28;20021;-83
2021/06/15 06:16:42;;;;;;;2.40;0.50;;;18.60;69.80;;;;;;5053292;28;20112;-81
2021/06/15 06:19:13;;;;;;;4.45;0.50;;;18.70;69.10;;;;;;5053779;28;20083;-80
2021/06/15 06:21:38;;;;;;;4.95;0.80;;;18.80;69.00;;;;;;5049602;28;20029;-80
2021/06/15 06:24:06;;;;;;;4.20;0.47;;;18.80;69.20;;;;;;5016731;28;20060;-81
2021/06/15 06:26:32;;;;;;;6.75;0.80;;;18.90;68.50;;;;;;5017057;28;20552;-81
2021/06/15 06:28:58;;;;;;;3.00;0.40;;;18.90;68.20;;;;;;5016910;28;20071;-81
2021/06/15 06:31:24;;;;;;;3.75;0.55;;;18.90;68.00;;;;;;5046874;28;20039;-81
2021/06/15 06:33:50;;;;;;;4.30;0.43;;;18.90;67.80;;;;;;5033926;28;20041;-82
2021/06/15 06:36:16;;;;;;;5.13;0.60;;;19.00;67.70;;;;;;5017160;28;20493;-82
2021/06/15 06:38:48;;;;;;;4.72;0.80;;;19.00;67.40;;;;;;5035079;28;20469;-81
2021/06/15 06:41:14;;;;;;;4.57;0.77;;;19.00;67.20;;;;;;5047074;28;20036;-80
2021/06/15 06:43:39;;;;;;;4.82;0.77;;;19.00;67.20;;;;;;5019996;28;20105;-82
2021/06/15 06:46:05;;;;;;;3.20;0.70;;;19.10;67.00;;;;;;5036302;28;20044;-82
2021/06/15 06:48:31;;;;;;;8.77;0.73;;;19.20;66.50;;;;;;5044594;28;20056;-81
2021/06/15 06:51:00;;;;;;;4.88;0.63;;;19.20;66.00;;;;;;5034923;28;20037;-81
2021/06/15 06:53:25;;;;;;;5.50;0.95;;;19.30;65.90;;;;;;5033499;28;20028;-82
2021/06/15 06:55:51;;;;;;;4.28;0.50;;;19.30;65.50;;;;;;5027408;28;20024;-81
2021/06/15 06:58:17;;;;;;;6.95;0.60;;;19.40;65.50;;;;;;5053907;28;20086;-88
2021/06/15 07:00:45;;;;;;;8.40;0.70;;;19.40;65.40;;;;;;5057477;28;20500;-89
2021/06/15 07:03:11;;;;;;;3.28;0.60;;;19.50;65.40;;;;;;5026416;28;20030;-82
2021/06/15 07:05:36;;;;;;;6.07;0.60;;;19.60;65.00;;;;;;5033303;28;20121;-83
2021/06/15 07:08:02;;;;;;;5.82;0.82;;;19.60;64.50;;;;;;5033952;28;20100;-89
2021/06/15 07:10:33;;;;;;;4.90;0.70;;;19.70;64.10;;;;;;5033469;28;20026;-83
2021/06/15 07:12:59;;;;;;;8.63;1.15;;;19.80;64.10;;;;;;5032430;28;20044;-87
2021/06/15 07:15:29;;;;;;;6.03;0.80;;;19.80;63.10;;;;;;5033092;28;20079;-86
2021/06/15 07:17:55;;;;;;;5.00;0.77;;;19.80;63.10;;;;;;5035973;28;20052;-84
2021/06/15 07:20:21;;;;;;;5.63;0.60;;;19.90;62.90;;;;;;5049874;28;20044;-87
2021/06/15 07:22:47;;;;;;;3.95;0.60;;;19.90;62.50;;;;;;5022324;28;20029;-83
2021/06/15 07:25:13;;;;;;;7.63;0.80;;;19.90;62.20;;;;;;5047958;28;20021;-85
2021/06/15 07:27:39;;;;;;;3.63;0.45;;;20.00;62.20;;;;;;5034496;28;20037;-83
2021/06/15 07:30:08;;;;;;;3.88;0.82;;;20.00;62.20;;;;;;5033837;28;20052;-85
2021/06/15 07:32:34;;;;;;;4.80;1.02;;;20.10;62.00;;;;;;5031066;28;20026;-85
2021/06/15 07:35:00;;;;;;;3.35;0.47;;;20.10;61.40;;;;;;5015254;28;20034;-81
2021/06/15 07:37:26;;;;;;;6.10;0.63;;;20.10;61.10;;;;;;5014911;28;20061;-83
2021/06/15 07:39:51;;;;;;;5.63;0.60;;;20.10;61.00;;;;;;5037468;28;20480;-82
2021/06/15 07:42:17;;;;;;;4.97;0.40;;;20.10;60.80;;;;;;5032800;28;20022;-86
2021/06/15 07:44:43;;;;;;;6.75;0.50;;;20.10;60.80;;;;;;5044243;28;20495;-84
2021/06/15 07:47:08;;;;;;;5.30;0.47;;;20.10;61.00;;;;;;5043144;28;20045;-83
2021/06/15 07:49:34;;;;;;;2.65;0.40;;;20.30;61.10;;;;;;5041297;28;20029;-82
2021/06/15 07:52:00;;;;;;;3.60;0.55;;;20.30;60.60;;;;;;5034629;28;20044;-84
2021/06/15 07:54:26;;;;;;;2.70;0.40;;;20.30;59.60;;;;;;5034427;28;20384;-83
2021/06/15 07:56:51;;;;;;;4.07;0.55;;;20.40;59.20;;;;;;5034821;28;20484;-83
2021/06/15 07:59:17;;;;;;;2.50;0.60;;;20.50;59.10;;;;;;5034902;28;20029;-82
2021/06/15 08:01:43;;;;;;;2.72;0.40;;;20.60;58.90;;;;;;5038409;28;20096;-80
2021/06/15 08:04:13;;;;;;;5.45;0.50;;;20.70;58.50;;;;;;5031255;28;20029;-84
2021/06/15 08:06:39;;;;;;;3.30;0.60;;;20.80;58.00;;;;;;5031212;28;20493;-83
2021/06/15 08:09:04;;;;;;;8.27;1.15;;;20.90;57.50;;;;;;5050656;28;20041;-81
2021/06/15 08:11:30;;;;;;;6.93;0.60;;;21.00;57.00;;;;;;5033758;28;20035;-83
2021/06/15 08:13:56;;;;;;;4.25;0.40;;;21.20;56.40;;;;;;5031340;28;20025;-82
2021/06/15 08:16:21;;;;;;;5.50;0.60;;;21.20;56.20;;;;;;5032327;28;20427;-82
2021/06/15 08:18:47;;;;;;;4.15;0.52;;;21.20;56.20;;;;;;5015154;28;20033;-81
2021/06/15 08:21:15;;;;;;;3.05;0.50;;;21.30;56.30;;;;;;5031517;28;20040;-82
2021/06/15 08:23:44;;;;;;;4.57;0.70;;;21.40;56.50;;;;;;5031272;28;20040;-84
2021/06/15 08:26:10;;;;;;;3.20;0.40;;;21.50;56.20;;;;;;5032206;28;20526;-84
2021/06/15 08:28:36;;;;;;;3.83;0.60;;;21.50;56.00;;;;;;5024083;28;20048;-83
2021/06/15 08:31:02;;;;;;;7.75;0.63;;;21.60;55.90;;;;;;5044553;28;20025;-82
2021/06/15 08:33:28;;;;;;;7.85;0.50;;;21.70;55.60;;;;;;5050907;28;20474;-84
2021/06/15 08:35:53;;;;;;;6.93;0.60;;;21.70;55.20;;;;;;5050281;28;20028;-83
2021/06/15 08:38:19;;;;;;;4.75;0.60;;;21.80;54.60;;;;;;5050748;28;20036;-82
2021/06/15 08:41:11;;;;;;;4.70;0.40;;;21.70;54.70;;;;;;5033839;28;20120;-84
2021/06/15 08:43:37;;;;;;;3.85;0.50;;;21.80;54.40;;;;;;5034843;28;20040;-83
2021/06/15 08:46:02;;;;;;;4.55;0.50;;;21.80;54.00;;;;;;5048644;28;20029;-82
2021/06/15 08:48:32;;;;;;;3.90;0.50;;;21.80;53.60;;;;;;5034801;28;20513;-85
2021/06/15 08:51:00;;;;;;;5.85;0.60;;;21.80;53.40;;;;;;5051267;28;20029;-83
2021/06/15 08:53:26;;;;;;;3.65;0.47;;;21.80;53.40;;;;;;5037330;28;20060;-82
2021/06/15 08:56:00;;;;;;;2.08;0.30;;;21.80;53.20;;;;;;5039860;28;20029;-81
2021/06/15 08:58:38;;;;;;;4.63;0.50;;;22.00;53.20;;;;;;5055218;28;20098;-83
2021/06/15 09:01:12;;;;;;;3.20;0.65;;;22.10;53.20;;;;;;5043360;28;20022;-84
2021/06/15 09:03:40;;;;;;;5.43;0.60;;;22.20;53.20;;;;;;5035546;28;20484;-83
2021/06/15 09:06:06;;;;;;;4.50;0.70;;;22.30;53.30;;;;;;5040107;28;20116;-79
2021/06/15 09:08:49;;;;;;;3.55;0.50;;;22.40;53.10;;;;;;5043828;28;20036;-79
2021/06/15 09:11:14;;;;;;;5.15;0.60;;;22.40;52.90;;;;;;5046727;28;20029;-79
2021/06/15 09:13:40;;;;;;;4.95;0.60;;;22.50;52.70;;;;;;5033314;28;20037;-79
2021/06/15 09:16:26;;;;;;;2.50;0.40;;;22.50;52.20;;;;;;5033950;28;20432;-79
2021/06/15 09:18:54;;;;;;;3.42;0.40;;;22.60;52.30;;;;;;5038109;28;20034;-79
2021/06/15 09:21:29;;;;;;;4.25;0.65;;;22.70;52.30;;;;;;5050839;28;20021;-79
2021/06/15 09:24:23;;;;;;;4.72;0.82;;;22.90;52.30;;;;;;5035758;28;20029;-79
2021/06/15 09:27:07;;;;;;;3.83;0.50;;;23.10;52.10;;;;;;5033982;28;20385;-79
2021/06/15 09:29:44;;;;;;;4.55;0.60;;;23.10;51.80;;;;;;5034075;28;20044;-79
2021/06/15 09:32:45;;;;;;;3.15;0.40;;;23.20;51.90;;;;;;5033867;28;20021;-79
2021/06/15 09:35:14;;;;;;;4.57;0.50;;;23.20;51.80;;;;;;5041825;28;20041;-81
2021/06/15 09:37:42;;;;;;;3.85;0.50;;;23.30;51.90;;;;;;5044685;28;20036;-81
2021/06/15 09:40:10;;;;;;;3.15;0.40;;;23.30;51.90;;;;;;5053580;28;20480;-85
2021/06/15 09:43:05;;;;;;;3.30;0.30;;;23.30;51.90;;;;;;5055224;28;20159;-85
2021/06/15 09:45:39;;;;;;;3.60;0.38;;;23.30;51.80;;;;;;5038422;28;20378;-87
2021/06/15 09:48:36;;;;;;;4.72;0.73;;;23.30;52.00;;;;;;5037836;28;20049;-86
2021/06/15 09:51:16;;;;;;;3.53;0.40;;;23.30;52.30;;;;;;5046849;28;20130;-86
2021/06/15 09:53:50;;;;;;;1.92;0.30;;;23.30;52.30;;;;;;5050435;28;20021;-86
2021/06/15 09:56:16;;;;;;;3.88;0.50;;;23.30;51.90;;;;;;5045803;28;20071;-86
2021/06/15 09:58:47;;;;;;;4.40;0.57;;;23.30;51.60;;;;;;5026462;28;20030;-85
2021/06/15 10:01:43;;;;;;;7.65;0.60;;;23.40;51.30;;;;;;5035175;28;20057;-86
2021/06/15 10:04:21;;;;;;;2.50;0.50;;;23.40;51.10;;;;;;5039703;28;20035;-81
2021/06/15 10:06:49;;;;;;;2.55;0.50;;;23.40;51.10;;;;;;5053849;28;20025;-81
2021/06/15 10:09:28;;;;;;;3.78;0.60;;;23.50;51.30;;;;;;5054121;28;20388;-81
2021/06/15 10:11:59;;;;;;;3.95;0.50;;;23.50;50.90;;;;;;5052959;28;20071;-81
2021/06/15 10:14:26;;;;;;;2.90;0.30;;;23.50;50.70;;;;;;5053074;28;20354;-81
2021/06/15 10:16:52;;;;;;;1.77;0.30;;;23.60;50.70;;;;;;5054467;28;20033;-81
2021/06/15 10:19:18;;;;;;;3.67;0.45;;;23.70;50.60;;;;;;5053089;28;20389;-81
2021/06/15 10:21:44;;;;;;;5.18;0.30;;;23.80;50.30;;;;;;5053072;28;20033;-81
2021/06/15 10:24:10;;;;;;;2.97;0.40;;;24.00;50.20;;;;;;5052129;28;20037;-80
2021/06/15 10:26:36;;;;;;;3.20;0.60;;;24.10;50.20;;;;;;5051960;28;20025;-81
2021/06/15 10:29:10;;;;;;;2.38;0.40;;;24.30;50.00;;;;;;5040867;28;20043;-81
2021/06/15 10:31:37;;;;;;;3.70;0.50;;;24.40;49.50;;;;;;5051524;28;20461;-81
2021/06/15 10:34:03;;;;;;;3.03;0.50;;;24.60;49.50;;;;;;5035514;28;20029;-81
2021/06/15 10:36:46;;;;;;;3.42;0.52;;;24.60;49.10;;;;;;5034239;28;20537;-81
2021/06/15 10:39:38;;;;;;;7.38;0.40;;;24.80;48.50;;;;;;5045020;28;20037;-82
2021/06/15 10:42:17;;;;;;;3.40;0.47;;;25.00;48.50;;;;;;5032208;28;20124;-81
2021/06/15 10:44:43;;;;;;;3.42;0.45;;;25.20;48.50;;;;;;5015807;28;20030;-81
2021/06/15 10:47:14;;;;;;;2.70;0.30;;;25.30;48.40;;;;;;5038921;28;20025;-81
2021/06/15 10:50:02;;;;;;;1.75;0.30;;;25.40;47.90;;;;;;5052975;28;20045;-82
2021/06/15 10:52:58;;;;;;;3.05;0.30;;;25.60;47.40;;;;;;5051586;28;20032;-81
2021/06/15 10:55:42;;;;;;;1.42;0.38;;;25.70;48.10;;;;;;5049460;28;20026;-83
2021/06/15 10:58:08;;;;;;;;;;;25.80;47.60;;;;;;5036836;28;20076;-84
2021/06/15 11:00:48;;;;;;;2.10;0.30;;;26.00;47.70;;;;;;5047252;28;19944;-86
2021/06/15 11:03:16;;;;;;;1.77;0.30;;;26.20;47.00;;;;;;5057546;28;20020;-87
2021/06/15 11:06:02;;;;;;;3.90;0.40;;;26.50;46.50;;;;;;5049981;28;20021;-86
2021/06/15 11:08:32;;;;;;;4.85;0.52;;;26.70;45.30;;;;;;5041853;28;20131;-84
2021/06/15 11:11:03;;;;;;;3.65;0.35;;;26.90;45.20;;;;;;5042983;28;20029;-86
2021/06/15 11:13:48;;;;;;;2.85;0.32;;;27.10;44.80;;;;;;5047882;28;20025;-85
2021/06/15 11:16:33;;;;;;;1.23;0.20;;;27.20;44.10;;;;;;5047192;28;20025;-88
2021/06/15 11:19:11;;;;;;;2.40;0.40;;;27.40;43.90;;;;;;5049646;28;20109;-89
2021/06/15 11:21:54;;;;;;;1.75;0.50;;;27.70;43.40;;;;;;5048591;28;20039;-87
2021/06/15 11:24:21;;;;;;;2.45;0.32;;;27.80;42.80;;;;;;5050729;28;20469;-86
2021/06/15 11:26:52;;;;;;;2.60;0.35;;;28.00;42.80;;;;;;5047266;28;20030;-85
2021/06/15 11:29:33;;;;;;;2.83;0.38;;;28.20;42.50;;;;;;5032308;28;20037;-88
2021/06/15 11:32:18;;;;;;;1.52;0.30;;;28.40;42.00;;;;;;5048497;28;20030;-84
2021/06/15 11:34:53;;;;;;;4.45;0.40;;;28.60;41.60;;;;;;5032037;28;20033;-85
2021/06/15 11:37:42;;;;;;;1.77;0.40;;;28.80;41.30;;;;;;5046612;28;20025;-85
2021/06/15 11:40:30;;;;;;;2.33;0.38;;;29.00;41.20;;;;;;5052030;28;20021;-84
2021/06/15 11:42:56;;;;;;;3.17;0.40;;;29.20;40.50;;;;;;5051333;28;20067;-84
2021/06/15 11:45:31;;;;;;;2.80;0.40;;;29.40;40.80;;;;;;5029016;28;20191;-83
2021/06/15 11:48:17;;;;;;;3.33;0.52;;;29.60;40.30;;;;;;5050636;28;20041;-83
2021/06/15 11:50:45;;;;;;;3.97;0.50;;;29.80;40.20;;;;;;5049191;28;20033;-83
2021/06/15 11:53:19;;;;;;;3.97;0.40;;;30.00;40.50;;;;;;5040743;28;20017;-83
2021/06/15 11:55:51;;;;;;;3.15;0.50;;;30.20;40.10;;;;;;5051269;28;20031;-84
2021/06/15 11:58:20;;;;;;;2.88;0.35;;;30.30;40.10;;;;;;5049518;28;20021;-83
2021/06/15 12:00:48;;;;;;;3.35;0.40;;;30.50;39.80;;;;;;5048002;28;20021;-83
2021/06/15 12:03:22;;;;;;;3.25;0.50;;;30.70;39.80;;;;;;5046675;28;20425;-84
2021/06/15 12:05:53;;;;;;;5.25;0.50;;;30.90;39.70;;;;;;5061267;28;20021;-87
2021/06/15 12:08:20;;;;;;;1.95;0.52;;;31.10;39.00;;;;;;5051594;28;20082;-87
2021/06/15 12:10:47;;;;;;;2.63;0.50;;;31.20;38.50;;;;;;5051443;28;20093;-86
2021/06/15 12:13:14;;;;;;;7.55;0.50;;;31.40;38.00;;;;;;5050447;28;20044;-86
2021/06/15 12:15:44;;;;;;;2.17;0.50;;;31.60;37.80;;;;;;5052831;28;20036;-88
2021/06/15 12:18:17;;;;;;;3.03;0.52;;;31.70;37.60;;;;;;5049464;28;20025;-86
2021/06/15 12:20:45;;;;;;;4.13;0.45;;;31.70;37.40;;;;;;5042361;28;20051;-90
2021/06/15 12:23:32;;;;;;;3.65;0.30;;;31.80;37.40;;;;;;5057902;28;20037;-88
2021/06/15 12:26:05;;;;;;;2.88;0.50;;;32.00;37.00;;;;;;5058800;28;20029;-86
2021/06/15 12:28:31;;;;;;;;;;;32.00;37.00;;;;;;5055707;28;20376;-83
2021/06/15 12:31:07;;;;;;;3.35;0.63;;;32.00;37.10;;;;;;5056553;28;19919;-85
2021/06/15 12:33:36;;;;;;;2.33;0.40;;;32.20;36.90;;;;;;5055371;28;20506;-85
2021/06/15 12:36:05;;;;;;;2.72;0.68;;;32.30;36.90;;;;;;5054779;28;20033;-86
2021/06/15 12:38:32;;;;;;;4.03;0.60;;;32.40;36.60;;;;;;5054599;28;20480;-85
2021/06/15 12:40:58;;;;;;;2.72;0.50;;;32.50;36.40;;;;;;5055419;28;20041;-85
2021/06/15 12:43:28;;;;;;;6.60;0.70;;;32.60;36.10;;;;;;5038400;28;20033;-86
2021/06/15 12:46:28;;;;;;;2.53;0.47;;;32.70;35.80;;;;;;5055032;28;20457;-85
2021/06/15 12:48:56;;;;;;;4.18;0.77;;;32.80;35.50;;;;;;5015890;28;20056;-88
2021/06/15 12:51:28;;;;;;;4.13;1.05;;;32.90;35.80;;;;;;5055014;28;20124;-85
2021/06/15 12:53:54;;;;;;;3.08;0.45;;;33.00;35.30;;;;;;5054361;28;20111;-86
2021/06/15 12:56:30;;;;;;;2.10;0.40;;;33.10;35.20;;;;;;5055185;28;20048;-87
2021/06/15 12:58:57;;;;;;;7.18;0.65;;;33.40;35.30;;;;;;5055268;28;20039;-82
2021/06/15 13:01:35;;;;;;;3.38;0.80;;;33.50;34.70;;;;;;5054619;28;20032;-86
2021/06/15 13:04:17;;;;;;;3.60;0.55;;;33.60;34.40;;;;;;5056720;28;20112;-88
2021/06/15 13:06:44;;;;;;;4.68;0.60;;;33.70;34.10;;;;;;5056313;28;20025;-87
2021/06/15 13:09:33;;;;;;;4.38;0.60;;;33.90;34.50;;;;;;5038536;28;20028;-86